sensor_id;sensor_type;location;lat;lon;timestamp;pressure;altitude;pressure_sealevel;temperature;humidity
27840;BME280;15207;42.182;24.308;2022-08-01T00:00:32;98900.69;;;23.28;56.54
27840;BME280;15207;42.182;24.308;2022-08-01T00:02:57;98911.44;;;23.16;57.23
27840;BME280;15207;42.182;24.308;2022-08-01T00:05:23;98911.25;;;23.04;57.61
27840;BME280;15207;42.182;24.308;2022-08-01T00:07:49;98908.94;;;23.07;57.65
27840;BME280;15207;42.182;24.308;2022-08-01T00:10:14;98901.59;;;22.88;58.73
27840;BME280;15207;42.182;24.308;2022-08-01T00:12:40;98901.41;;;22.76;59.08
27840;BME280;15207;42.182;24.308;2022-08-01T00:15:08;98899.31;;;22.78;59.52
27840;BME280;15207;42.182;24.308;2022-08-01T00:17:34;98901.84;;;22.66;59.89
27840;BME280;15207;42.182;24.308;2022-08-01T00:20:00;98907.31;;;22.59;60.06
27840;BME280;15207;42.182;24.308;2022-08-01T00:22:25;98899.13;;;22.59;60.08
27840;BME280;15207;42.182;24.308;2022-08-01T00:24:51;98903.06;;;22.50;60.34
27840;BME280;15207;42.182;24.308;2022-08-01T00:27:16;98898.03;;;22.46;60.27
27840;BME280;15207;42.182;24.308;2022-08-01T00:29:42;98897.00;;;22.48;59.78
27840;BME280;15207;42.182;24.308;2022-08-01T00:32:08;98899.28;;;22.51;59.45
27840;BME280;15207;42.182;24.308;2022-08-01T00:34:33;98904.38;;;22.67;58.70
27840;BME280;15207;42.182;24.308;2022-08-01T00:36:59;98905.00;;;22.69;58.67
27840;BME280;15207;42.182;24.308;2022-08-01T00:39:24;98893.66;;;22.66;58.70
27840;BME280;15207;42.182;24.308;2022-08-01T00:41:50;98894.47;;;22.53;59.27
27840;BME280;15207;42.182;24.308;2022-08-01T00:44:15;98900.53;;;22.48;59.66
27840;BME280;15207;42.182;24.308;2022-08-01T00:46:41;98897.00;;;22.41;60.25
27840;BME280;15207;42.182;24.308;2022-08-01T00:49:07;98904.09;;;22.35;60.47
27840;BME280;15207;42.182;24.308;2022-08-01T00:51:33;98907.69;;;22.36;60.69
27840;BME280;15207;42.182;24.308;2022-08-01T00:53:59;98900.13;;;22.38;60.76
27840;BME280;15207;42.182;24.308;2022-08-01T00:56:26;98905.56;;;22.38;61.25
27840;BME280;15207;42.182;24.308;2022-08-01T00:58:53;98905.16;;;22.34;60.48
27840;BME280;15207;42.182;24.308;2022-08-01T01:01:19;98904.09;;;22.35;60.93
27840;BME280;15207;42.182;24.308;2022-08-01T01:03:49;98901.59;;;22.33;60.92
27840;BME280;15207;42.182;24.308;2022-08-01T01:09:50;98899.50;;;22.36;61.19
27840;BME280;15207;42.182;24.308;2022-08-01T01:15:33;98894.84;;;22.09;61.74
27840;BME280;15207;42.182;24.308;2022-08-01T01:18:21;98892.09;;;21.89;62.11
27840;BME280;15207;42.182;24.308;2022-08-01T01:24:40;98903.41;;;21.92;62.04
27840;BME280;15207;42.182;24.308;2022-08-01T01:30:04;98910.94;;;21.90;62.06
27840;BME280;15207;42.182;24.308;2022-08-01T01:32:36;98907.16;;;21.78;62.06
27840;BME280;15207;42.182;24.308;2022-08-01T01:35:10;98904.22;;;21.79;61.78
27840;BME280;15207;42.182;24.308;2022-08-01T01:37:38;98897.72;;;21.80;61.31
27840;BME280;15207;42.182;24.308;2022-08-01T01:40:05;98913.00;;;21.75;61.36
27840;BME280;15207;42.182;24.308;2022-08-01T01:42:33;98907.53;;;21.75;61.79
27840;BME280;15207;42.182;24.308;2022-08-01T01:45:03;98909.88;;;21.78;60.96
27840;BME280;15207;42.182;24.308;2022-08-01T01:47:31;98905.91;;;21.80;61.01
27840;BME280;15207;42.182;24.308;2022-08-01T01:49:59;98901.91;;;21.83;60.61
27840;BME280;15207;42.182;24.308;2022-08-01T01:52:26;98903.16;;;21.80;61.14
27840;BME280;15207;42.182;24.308;2022-08-01T01:54:54;98900.03;;;21.77;60.06
27840;BME280;15207;42.182;24.308;2022-08-01T01:57:21;98896.47;;;21.83;59.43
27840;BME280;15207;42.182;24.308;2022-08-01T01:59:50;98898.34;;;21.83;58.91
27840;BME280;15207;42.182;24.308;2022-08-01T02:02:17;98901.50;;;21.86;58.64
27840;BME280;15207;42.182;24.308;2022-08-01T02:04:45;98894.16;;;21.87;58.21
27840;BME280;15207;42.182;24.308;2022-08-01T02:07:21;98892.09;;;21.96;57.47
27840;BME280;15207;42.182;24.308;2022-08-01T02:09:48;98904.25;;;22.00;57.38
27840;BME280;15207;42.182;24.308;2022-08-01T02:12:16;98899.84;;;21.99;57.15
27840;BME280;15207;42.182;24.308;2022-08-01T02:14:45;98903.84;;;21.96;57.01
27840;BME280;15207;42.182;24.308;2022-08-01T02:17:16;98901.75;;;22.05;56.03
27840;BME280;15207;42.182;24.308;2022-08-01T02:19:42;98906.59;;;22.10;55.57
27840;BME280;15207;42.182;24.308;2022-08-01T02:22:11;98908.88;;;22.06;55.28
27840;BME280;15207;42.182;24.308;2022-08-01T02:27:10;98906.94;;;21.86;56.76
27840;BME280;15207;42.182;24.308;2022-08-01T02:29:58;98913.00;;;21.75;56.98
27840;BME280;15207;42.182;24.308;2022-08-01T02:32:24;98907.47;;;21.61;57.64
27840;BME280;15207;42.182;24.308;2022-08-01T02:34:51;98904.72;;;21.54;57.29
27840;BME280;15207;42.182;24.308;2022-08-01T02:37:20;98910.97;;;21.42;58.29
27840;BME280;15207;42.182;24.308;2022-08-01T02:39:51;98904.78;;;21.26;58.93
27840;BME280;15207;42.182;24.308;2022-08-01T02:42:18;98908.97;;;21.22;59.41
27840;BME280;15207;42.182;24.308;2022-08-01T02:44:47;98908.94;;;21.15;59.33
27840;BME280;15207;42.182;24.308;2022-08-01T02:47:15;98910.78;;;21.14;58.91
27840;BME280;15207;42.182;24.308;2022-08-01T02:49:45;98910.63;;;20.87;61.02
27840;BME280;15207;42.182;24.308;2022-08-01T02:52:16;98906.63;;;20.61;63.05
27840;BME280;15207;42.182;24.308;2022-08-01T02:54:47;98910.53;;;20.52;63.04
27840;BME280;15207;42.182;24.308;2022-08-01T02:57:14;98909.25;;;20.48;63.41
27840;BME280;15207;42.182;24.308;2022-08-01T02:59:42;98906.25;;;20.43;65.03
27840;BME280;15207;42.182;24.308;2022-08-01T03:02:09;98905.75;;;20.32;64.03
27840;BME280;15207;42.182;24.308;2022-08-01T03:04:37;98903.69;;;20.34;63.94
27840;BME280;15207;42.182;24.308;2022-08-01T03:07:06;98904.66;;;20.27;64.31
27840;BME280;15207;42.182;24.308;2022-08-01T03:09:33;98902.09;;;20.18;63.92
27840;BME280;15207;42.182;24.308;2022-08-01T03:12:02;98895.34;;;20.14;63.32
27840;BME280;15207;42.182;24.308;2022-08-01T03:14:30;98892.09;;;20.26;63.13
27840;BME280;15207;42.182;24.308;2022-08-01T03:16:59;98882.91;;;20.27;62.57
27840;BME280;15207;42.182;24.308;2022-08-01T03:19:27;98884.13;;;20.24;62.76
27840;BME280;15207;42.182;24.308;2022-08-01T03:21:55;98886.91;;;20.31;62.01
27840;BME280;15207;42.182;24.308;2022-08-01T03:24:23;98888.00;;;20.15;64.17
27840;BME280;15207;42.182;24.308;2022-08-01T03:26:49;98883.97;;;19.89;64.67
27840;BME280;15207;42.182;24.308;2022-08-01T03:29:18;98888.00;;;19.78;65.70
27840;BME280;15207;42.182;24.308;2022-08-01T03:31:46;98905.69;;;19.52;67.34
27840;BME280;15207;42.182;24.308;2022-08-01T03:34:13;98901.78;;;19.39;68.60
27840;BME280;15207;42.182;24.308;2022-08-01T03:36:56;98903.94;;;19.29;69.91
27840;BME280;15207;42.182;24.308;2022-08-01T03:39:22;98902.72;;;19.32;69.16
27840;BME280;15207;42.182;24.308;2022-08-01T03:41:54;98907.13;;;19.33;68.24
27840;BME280;15207;42.182;24.308;2022-08-01T03:44:25;98905.97;;;19.27;68.44
27840;BME280;15207;42.182;24.308;2022-08-01T03:47:05;98901.41;;;19.27;68.58
27840;BME280;15207;42.182;24.308;2022-08-01T03:49:38;98894.84;;;19.37;68.47
27840;BME280;15207;42.182;24.308;2022-08-01T03:52:07;98903.72;;;19.46;67.83
27840;BME280;15207;42.182;24.308;2022-08-01T03:54:36;98902.06;;;19.45;68.35
27840;BME280;15207;42.182;24.308;2022-08-01T03:57:04;98897.63;;;19.59;67.36
27840;BME280;15207;42.182;24.308;2022-08-01T03:59:31;98900.16;;;19.60;67.07
27840;BME280;15207;42.182;24.308;2022-08-01T04:01:57;98907.06;;;19.63;67.55
27840;BME280;15207;42.182;24.308;2022-08-01T04:04:23;98902.00;;;19.75;67.76
27840;BME280;15207;42.182;24.308;2022-08-01T04:06:50;98892.31;;;19.87;67.39
27840;BME280;15207;42.182;24.308;2022-08-01T04:09:20;98897.47;;;19.97;66.85
27840;BME280;15207;42.182;24.308;2022-08-01T04:11:46;98904.47;;;20.06;64.77
27840;BME280;15207;42.182;24.308;2022-08-01T04:14:12;98905.50;;;20.27;65.15
27840;BME280;15207;42.182;24.308;2022-08-01T04:16:38;98904.06;;;20.53;67.37
27840;BME280;15207;42.182;24.308;2022-08-01T04:19:04;98907.53;;;20.69;65.68
27840;BME280;15207;42.182;24.308;2022-08-01T04:21:33;98903.28;;;20.88;66.88
27840;BME280;15207;42.182;24.308;2022-08-01T04:24:05;98904.91;;;21.11;63.42
27840;BME280;15207;42.182;24.308;2022-08-01T04:26:32;98894.38;;;21.43;62.48
27840;BME280;15207;42.182;24.308;2022-08-01T04:29:00;98902.75;;;21.77;59.97
27840;BME280;15207;42.182;24.308;2022-08-01T04:31:28;98903.00;;;22.02;60.10
27840;BME280;15207;42.182;24.308;2022-08-01T04:33:56;98902.41;;;22.20;58.83
27840;BME280;15207;42.182;24.308;2022-08-01T04:36:23;98903.06;;;22.43;58.14
27840;BME280;15207;42.182;24.308;2022-08-01T04:38:53;98906.47;;;22.72;57.91
27840;BME280;15207;42.182;24.308;2022-08-01T04:41:22;98899.72;;;22.95;55.93
27840;BME280;15207;42.182;24.308;2022-08-01T04:43:48;98898.41;;;23.11;53.51
27840;BME280;15207;42.182;24.308;2022-08-01T04:46:16;98899.38;;;23.50;50.98
27840;BME280;15207;42.182;24.308;2022-08-01T04:48:43;98895.91;;;23.75;50.81
27840;BME280;15207;42.182;24.308;2022-08-01T04:51:14;98895.22;;;23.87;49.19
27840;BME280;15207;42.182;24.308;2022-08-01T04:53:44;98898.94;;;23.99;49.49
27840;BME280;15207;42.182;24.308;2022-08-01T04:56:11;98898.69;;;24.08;48.13
27840;BME280;15207;42.182;24.308;2022-08-01T04:58:41;98901.13;;;24.23;48.03
27840;BME280;15207;42.182;24.308;2022-08-01T05:01:07;98892.88;;;24.29;46.87
27840;BME280;15207;42.182;24.308;2022-08-01T05:03:33;98892.09;;;24.48;46.06
27840;BME280;15207;42.182;24.308;2022-08-01T05:05:58;98897.28;;;24.81;44.20
27840;BME280;15207;42.182;24.308;2022-08-01T05:08:24;98894.78;;;25.24;43.21
27840;BME280;15207;42.182;24.308;2022-08-01T05:10:50;98900.03;;;25.26;42.67
27840;BME280;15207;42.182;24.308;2022-08-01T05:13:15;98893.19;;;25.16;44.33
27840;BME280;15207;42.182;24.308;2022-08-01T05:15:41;98900.28;;;25.24;44.06
27840;BME280;15207;42.182;24.308;2022-08-01T05:18:06;98896.75;;;25.17;43.82
27840;BME280;15207;42.182;24.308;2022-08-01T05:20:32;98899.56;;;25.10;44.29
27840;BME280;15207;42.182;24.308;2022-08-01T05:22:58;98893.31;;;25.03;43.38
27840;BME280;15207;42.182;24.308;2022-08-01T05:25:23;98900.56;;;25.16;43.52
27840;BME280;15207;42.182;24.308;2022-08-01T05:27:49;98902.03;;;25.37;41.92
27840;BME280;15207;42.182;24.308;2022-08-01T05:30:15;98898.88;;;25.52;41.94
27840;BME280;15207;42.182;24.308;2022-08-01T05:32:41;98888.53;;;25.73;40.87
27840;BME280;15207;42.182;24.308;2022-08-01T05:35:07;98887.84;;;26.20;38.98
27840;BME280;15207;42.182;24.308;2022-08-01T05:37:34;98892.59;;;26.44;38.00
27840;BME280;15207;42.182;24.308;2022-08-01T05:39:59;98894.13;;;26.27;37.57
27840;BME280;15207;42.182;24.308;2022-08-01T05:42:25;98878.53;;;26.52;37.17
27840;BME280;15207;42.182;24.308;2022-08-01T05:44:51;98886.31;;;26.91;35.75
27840;BME280;15207;42.182;24.308;2022-08-01T05:47:17;98885.97;;;26.99;36.38
27840;BME280;15207;42.182;24.308;2022-08-01T05:49:43;98888.34;;;27.08;35.92
27840;BME280;15207;42.182;24.308;2022-08-01T05:52:09;98887.38;;;26.90;36.67
27840;BME280;15207;42.182;24.308;2022-08-01T05:54:35;98884.19;;;26.93;36.79
27840;BME280;15207;42.182;24.308;2022-08-01T05:57:01;98884.53;;;26.97;37.62
27840;BME280;15207;42.182;24.308;2022-08-01T05:59:27;98883.91;;;27.18;37.12
27840;BME280;15207;42.182;24.308;2022-08-01T06:01:53;98880.78;;;27.39;36.96
27840;BME280;15207;42.182;24.308;2022-08-01T06:04:19;98874.72;;;27.25;36.64
27840;BME280;15207;42.182;24.308;2022-08-01T06:06:44;98874.09;;;27.23;37.76
27840;BME280;15207;42.182;24.308;2022-08-01T06:09:10;98868.59;;;27.35;36.81
27840;BME280;15207;42.182;24.308;2022-08-01T06:11:35;98870.22;;;27.48;36.25
27840;BME280;15207;42.182;24.308;2022-08-01T06:14:01;98872.88;;;27.42;35.42
27840;BME280;15207;42.182;24.308;2022-08-01T06:16:27;98872.50;;;27.51;36.65
27840;BME280;15207;42.182;24.308;2022-08-01T06:18:53;98870.50;;;27.75;35.60
27840;BME280;15207;42.182;24.308;2022-08-01T06:21:19;98859.28;;;27.77;35.95
27840;BME280;15207;42.182;24.308;2022-08-01T06:23:44;98858.28;;;27.83;35.97
27840;BME280;15207;42.182;24.308;2022-08-01T06:26:10;98854.34;;;27.79;35.93
27840;BME280;15207;42.182;24.308;2022-08-01T06:28:36;98856.47;;;27.89;36.36
27840;BME280;15207;42.182;24.308;2022-08-01T06:31:02;98850.00;;;28.12;35.81
27840;BME280;15207;42.182;24.308;2022-08-01T06:33:28;98853.56;;;28.24;34.42
27840;BME280;15207;42.182;24.308;2022-08-01T06:35:54;98848.63;;;28.27;34.63
27840;BME280;15207;42.182;24.308;2022-08-01T06:38:19;98850.53;;;28.43;35.84
27840;BME280;15207;42.182;24.308;2022-08-01T06:40:45;98849.22;;;28.46;33.24
27840;BME280;15207;42.182;24.308;2022-08-01T06:43:11;98847.22;;;28.58;33.94
27840;BME280;15207;42.182;24.308;2022-08-01T06:45:40;98840.03;;;28.57;33.87
27840;BME280;15207;42.182;24.308;2022-08-01T06:48:05;98839.44;;;28.55;34.43
27840;BME280;15207;42.182;24.308;2022-08-01T06:50:32;98837.84;;;28.59;35.02
27840;BME280;15207;42.182;24.308;2022-08-01T06:52:57;98841.03;;;28.51;32.69
27840;BME280;15207;42.182;24.308;2022-08-01T06:55:23;98833.13;;;28.37;31.87
27840;BME280;15207;42.182;24.308;2022-08-01T06:57:50;98839.53;;;28.43;33.10
27840;BME280;15207;42.182;24.308;2022-08-01T07:00:18;98831.50;;;28.59;33.03
27840;BME280;15207;42.182;24.308;2022-08-01T07:02:46;98835.94;;;28.77;34.06
27840;BME280;15207;42.182;24.308;2022-08-01T07:05:12;98832.06;;;28.95;34.39
27840;BME280;15207;42.182;24.308;2022-08-01T07:07:38;98831.97;;;29.07;32.82
27840;BME280;15207;42.182;24.308;2022-08-01T07:10:04;98822.53;;;29.03;32.75
27840;BME280;15207;42.182;24.308;2022-08-01T07:12:29;98835.47;;;29.02;32.75
27840;BME280;15207;42.182;24.308;2022-08-01T07:14:55;98838.88;;;29.10;32.30
27840;BME280;15207;42.182;24.308;2022-08-01T07:17:20;98835.09;;;29.16;32.18
27840;BME280;15207;42.182;24.308;2022-08-01T07:19:47;98837.00;;;29.15;32.06
27840;BME280;15207;42.182;24.308;2022-08-01T07:22:12;98827.44;;;29.01;32.19
27840;BME280;15207;42.182;24.308;2022-08-01T07:24:39;98825.41;;;28.91;32.26
27840;BME280;15207;42.182;24.308;2022-08-01T07:27:05;98832.31;;;28.76;32.52
27840;BME280;15207;42.182;24.308;2022-08-01T07:29:31;98823.75;;;28.90;32.18
27840;BME280;15207;42.182;24.308;2022-08-01T07:31:57;98818.31;;;28.95;33.10
27840;BME280;15207;42.182;24.308;2022-08-01T07:34:23;98814.78;;;28.83;32.82
27840;BME280;15207;42.182;24.308;2022-08-01T07:36:50;98815.72;;;28.88;33.17
27840;BME280;15207;42.182;24.308;2022-08-01T07:39:16;98808.69;;;28.98;32.54
27840;BME280;15207;42.182;24.308;2022-08-01T07:41:42;98811.56;;;29.08;32.25
27840;BME280;15207;42.182;24.308;2022-08-01T07:44:08;98810.97;;;29.06;32.75
27840;BME280;15207;42.182;24.308;2022-08-01T07:46:34;98802.09;;;29.21;32.81
27840;BME280;15207;42.182;24.308;2022-08-01T07:49:01;98803.94;;;29.38;32.79
27840;BME280;15207;42.182;24.308;2022-08-01T07:51:26;98804.63;;;29.73;33.09
27840;BME280;15207;42.182;24.308;2022-08-01T07:53:52;98809.34;;;29.77;31.88
27840;BME280;15207;42.182;24.308;2022-08-01T07:56:19;98795.94;;;29.91;31.73
27840;BME280;15207;42.182;24.308;2022-08-01T07:58:44;98799.47;;;29.81;31.35
27840;BME280;15207;42.182;24.308;2022-08-01T08:01:11;98796.59;;;29.71;32.78
27840;BME280;15207;42.182;24.308;2022-08-01T08:03:37;98802.31;;;29.64;30.15
27840;BME280;15207;42.182;24.308;2022-08-01T08:06:03;98797.81;;;29.80;30.43
27840;BME280;15207;42.182;24.308;2022-08-01T08:08:29;98798.56;;;29.76;31.04
27840;BME280;15207;42.182;24.308;2022-08-01T08:10:54;98790.88;;;29.78;31.24
27840;BME280;15207;42.182;24.308;2022-08-01T08:13:20;98790.16;;;29.93;31.06
27840;BME280;15207;42.182;24.308;2022-08-01T08:15:45;98790.97;;;30.16;32.09
27840;BME280;15207;42.182;24.308;2022-08-01T08:18:11;98783.81;;;30.20;30.52
27840;BME280;15207;42.182;24.308;2022-08-01T08:20:37;98787.22;;;30.32;29.78
27840;BME280;15207;42.182;24.308;2022-08-01T08:23:02;98779.22;;;30.36;31.40
27840;BME280;15207;42.182;24.308;2022-08-01T08:25:48;98782.06;;;30.46;30.32
27840;BME280;15207;42.182;24.308;2022-08-01T08:28:13;98775.97;;;30.44;29.72
27840;BME280;15207;42.182;24.308;2022-08-01T08:30:39;98780.34;;;30.40;30.89
27840;BME280;15207;42.182;24.308;2022-08-01T08:33:04;98787.22;;;30.32;30.90
27840;BME280;15207;42.182;24.308;2022-08-01T08:35:30;98783.56;;;30.27;31.18
27840;BME280;15207;42.182;24.308;2022-08-01T08:37:55;98787.78;;;30.07;31.01
27840;BME280;15207;42.182;24.308;2022-08-01T08:40:21;98778.56;;;30.18;31.11
27840;BME280;15207;42.182;24.308;2022-08-01T08:42:50;98771.09;;;30.19;31.44
27840;BME280;15207;42.182;24.308;2022-08-01T08:45:16;98767.84;;;30.27;30.83
27840;BME280;15207;42.182;24.308;2022-08-01T08:47:43;98778.88;;;30.27;30.89
27840;BME280;15207;42.182;24.308;2022-08-01T08:50:09;98777.50;;;30.25;31.35
27840;BME280;15207;42.182;24.308;2022-08-01T08:52:37;98768.63;;;30.17;30.61
27840;BME280;15207;42.182;24.308;2022-08-01T08:55:03;98771.63;;;30.16;31.19
27840;BME280;15207;42.182;24.308;2022-08-01T08:57:29;98771.59;;;30.11;31.65
27840;BME280;15207;42.182;24.308;2022-08-01T08:59:55;98773.81;;;30.14;31.25
27840;BME280;15207;42.182;24.308;2022-08-01T09:02:22;98762.88;;;30.29;31.43
27840;BME280;15207;42.182;24.308;2022-08-01T09:04:49;98772.94;;;30.46;31.10
27840;BME280;15207;42.182;24.308;2022-08-01T09:07:14;98769.13;;;30.52;31.23
27840;BME280;15207;42.182;24.308;2022-08-01T09:09:40;98762.84;;;30.67;30.81
27840;BME280;15207;42.182;24.308;2022-08-01T09:12:05;98770.66;;;30.75;31.36
27840;BME280;15207;42.182;24.308;2022-08-01T09:14:31;98769.31;;;30.83;30.13
27840;BME280;15207;42.182;24.308;2022-08-01T09:17:06;98769.91;;;30.91;31.05
27840;BME280;15207;42.182;24.308;2022-08-01T09:19:39;98760.22;;;30.88;31.08
27840;BME280;15207;42.182;24.308;2022-08-01T09:22:09;98758.81;;;30.80;30.56
27840;BME280;15207;42.182;24.308;2022-08-01T09:24:35;98754.69;;;30.83;30.53
27840;BME280;15207;42.182;24.308;2022-08-01T09:27:01;98757.81;;;31.07;30.75
27840;BME280;15207;42.182;24.308;2022-08-01T09:29:40;98746.78;;;31.12;30.57
27840;BME280;15207;42.182;24.308;2022-08-01T09:32:05;98757.59;;;31.19;30.54
27840;BME280;15207;42.182;24.308;2022-08-01T09:34:31;98752.34;;;31.23;30.69
27840;BME280;15207;42.182;24.308;2022-08-01T09:37:02;98757.81;;;31.07;29.89
27840;BME280;15207;42.182;24.308;2022-08-01T09:39:54;98740.59;;;30.90;30.90
27840;BME280;15207;42.182;24.308;2022-08-01T09:42:23;98749.72;;;30.85;30.88
27840;BME280;15207;42.182;24.308;2022-08-01T09:44:49;98745.84;;;30.86;31.52
27840;BME280;15207;42.182;24.308;2022-08-01T09:47:16;98737.56;;;30.91;31.20
27840;BME280;15207;42.182;24.308;2022-08-01T09:49:44;98733.97;;;30.80;31.90
27840;BME280;15207;42.182;24.308;2022-08-01T09:52:21;98734.22;;;30.79;31.37
27840;BME280;15207;42.182;24.308;2022-08-01T09:54:58;98729.44;;;30.69;31.26
27840;BME280;15207;42.182;24.308;2022-08-01T09:57:26;98727.06;;;30.83;30.93
27840;BME280;15207;42.182;24.308;2022-08-01T09:59:54;98723.16;;;30.73;30.62
27840;BME280;15207;42.182;24.308;2022-08-01T10:02:35;98721.53;;;30.40;31.31
27840;BME280;15207;42.182;24.308;2022-08-01T10:05:06;98726.22;;;30.34;32.51
27840;BME280;15207;42.182;24.308;2022-08-01T10:07:32;98722.09;;;30.37;31.38
27840;BME280;15207;42.182;24.308;2022-08-01T10:10:14;98725.78;;;30.53;31.74
27840;BME280;15207;42.182;24.308;2022-08-01T10:12:40;98712.81;;;30.58;31.84
27840;BME280;15207;42.182;24.308;2022-08-01T10:15:08;98715.69;;;30.79;30.64
27840;BME280;15207;42.182;24.308;2022-08-01T10:17:34;98722.38;;;30.94;31.32
27840;BME280;15207;42.182;24.308;2022-08-01T10:20:04;98714.38;;;30.97;30.48
27840;BME280;15207;42.182;24.308;2022-08-01T10:22:30;98713.56;;;30.97;30.47
27840;BME280;15207;42.182;24.308;2022-08-01T10:25:00;98712.22;;;31.10;30.11
27840;BME280;15207;42.182;24.308;2022-08-01T10:27:29;98710.88;;;31.28;30.43
27840;BME280;15207;42.182;24.308;2022-08-01T10:29:59;98718.88;;;31.19;30.80
27840;BME280;15207;42.182;24.308;2022-08-01T10:32:34;98717.25;;;31.23;31.22
27840;BME280;15207;42.182;24.308;2022-08-01T10:35:01;98711.16;;;31.26;30.74
27840;BME280;15207;42.182;24.308;2022-08-01T10:37:27;98709.00;;;31.39;30.62
27840;BME280;15207;42.182;24.308;2022-08-01T10:39:54;98714.53;;;31.39;29.20
27840;BME280;15207;42.182;24.308;2022-08-01T10:42:21;98703.75;;;31.43;30.32
27840;BME280;15207;42.182;24.308;2022-08-01T10:44:48;98697.97;;;31.70;29.74
27840;BME280;15207;42.182;24.308;2022-08-01T10:47:19;98697.41;;;31.68;29.09
27840;BME280;15207;42.182;24.308;2022-08-01T10:50:17;98703.50;;;31.54;29.11
27840;BME280;15207;42.182;24.308;2022-08-01T10:53:22;98703.22;;;31.56;29.97
27840;BME280;15207;42.182;24.308;2022-08-01T11:01:25;98695.19;;;31.49;30.77
27840;BME280;15207;42.182;24.308;2022-08-01T11:04:02;98707.06;;;31.45;30.24
27840;BME280;15207;42.182;24.308;2022-08-01T11:06:52;98699.34;;;31.47;29.88
27840;BME280;15207;42.182;24.308;2022-08-01T11:09:31;98704.88;;;31.52;29.73
27840;BME280;15207;42.182;24.308;2022-08-01T11:12:09;98694.06;;;31.56;30.19
27840;BME280;15207;42.182;24.308;2022-08-01T11:17:37;98689.94;;;31.53;30.43
27840;BME280;15207;42.182;24.308;2022-08-01T11:20:08;98698.50;;;31.57;29.99
27840;BME280;15207;42.182;24.308;2022-08-01T11:25:25;98690.78;;;31.74;29.30
27840;BME280;15207;42.182;24.308;2022-08-01T11:30:48;98687.44;;;31.46;28.79
27840;BME280;15207;42.182;24.308;2022-08-01T11:33:16;98677.22;;;31.42;29.15
27840;BME280;15207;42.182;24.308;2022-08-01T11:38:41;98682.47;;;31.48;28.21
27840;BME280;15207;42.182;24.308;2022-08-01T11:43:59;98670.84;;;31.62;29.87
27840;BME280;15207;42.182;24.308;2022-08-01T11:46:47;98673.34;;;31.74;29.07
27840;BME280;15207;42.182;24.308;2022-08-01T11:52:29;98676.09;;;31.63;28.05
27840;BME280;15207;42.182;24.308;2022-08-01T11:55:04;98673.91;;;31.65;28.85
27840;BME280;15207;42.182;24.308;2022-08-01T11:57:31;98660.63;;;31.67;28.66
27840;BME280;15207;42.182;24.308;2022-08-01T12:00:04;98667.53;;;31.75;28.23
27840;BME280;15207;42.182;24.308;2022-08-01T12:02:33;98659.50;;;31.84;27.62
27840;BME280;15207;42.182;24.308;2022-08-01T12:07:31;98661.44;;;31.84;27.71
27840;BME280;15207;42.182;24.308;2022-08-01T12:10:03;98663.09;;;31.85;28.65
27840;BME280;15207;42.182;24.308;2022-08-01T12:12:30;98654.25;;;31.88;28.96
27840;BME280;15207;42.182;24.308;2022-08-01T12:15:01;98654.53;;;31.97;29.37
27840;BME280;15207;42.182;24.308;2022-08-01T12:17:32;98652.84;;;32.11;27.93
27840;BME280;15207;42.182;24.308;2022-08-01T12:19:58;98653.66;;;32.17;27.06
27840;BME280;15207;42.182;24.308;2022-08-01T12:22:24;98654.78;;;32.05;27.06
27840;BME280;15207;42.182;24.308;2022-08-01T12:24:51;98664.16;;;32.20;28.90
27840;BME280;15207;42.182;24.308;2022-08-01T12:27:28;98660.84;;;32.28;28.09
27840;BME280;15207;42.182;24.308;2022-08-01T12:29:55;98653.91;;;32.20;27.42
27840;BME280;15207;42.182;24.308;2022-08-01T12:32:31;98651.97;;;32.21;27.67
27840;BME280;15207;42.182;24.308;2022-08-01T12:35:05;98653.38;;;32.13;26.98
27840;BME280;15207;42.182;24.308;2022-08-01T12:37:35;98655.59;;;32.16;28.37
27840;BME280;15207;42.182;24.308;2022-08-01T12:40:09;98650.91;;;32.06;27.77
27840;BME280;15207;42.182;24.308;2022-08-01T12:42:43;98645.09;;;32.08;27.79
27840;BME280;15207;42.182;24.308;2022-08-01T12:45:11;98640.94;;;32.11;29.31
27840;BME280;15207;42.182;24.308;2022-08-01T12:47:37;98640.41;;;32.03;28.96
27840;BME280;15207;42.182;24.308;2022-08-01T12:50:23;98640.69;;;32.07;29.36
27840;BME280;15207;42.182;24.308;2022-08-01T12:52:50;98639.28;;;32.15;27.83
27840;BME280;15207;42.182;24.308;2022-08-01T12:55:18;98646.47;;;32.05;29.04
27840;BME280;15207;42.182;24.308;2022-08-01T12:57:46;98635.44;;;31.85;29.19
27840;BME280;15207;42.182;24.308;2022-08-01T13:00:17;98632.41;;;31.76;28.78
27840;BME280;15207;42.182;24.308;2022-08-01T13:02:44;98630.19;;;31.73;28.97
27840;BME280;15207;42.182;24.308;2022-08-01T13:05:10;98632.09;;;31.72;29.19
27840;BME280;15207;42.182;24.308;2022-08-01T13:07:49;98625.47;;;31.78;29.00
27840;BME280;15207;42.182;24.308;2022-08-01T13:10:27;98623.53;;;31.69;28.84
27840;BME280;15207;42.182;24.308;2022-08-01T13:12:56;98627.97;;;31.54;28.62
27840;BME280;15207;42.182;24.308;2022-08-01T13:15:28;98635.44;;;31.69;29.40
27840;BME280;15207;42.182;24.308;2022-08-01T13:17:57;98622.72;;;31.78;28.76
27840;BME280;15207;42.182;24.308;2022-08-01T13:20:24;98626.31;;;31.74;30.58
27840;BME280;15207;42.182;24.308;2022-08-01T13:22:50;98638.19;;;31.79;29.70
27840;BME280;15207;42.182;24.308;2022-08-01T13:25:18;98626.28;;;31.84;28.45
27840;BME280;15207;42.182;24.308;2022-08-01T13:27:44;98632.13;;;31.93;29.40
27840;BME280;15207;42.182;24.308;2022-08-01T13:30:15;98626.28;;;32.00;27.87
27840;BME280;15207;42.182;24.308;2022-08-01T13:32:42;98626.03;;;31.96;29.43
27840;BME280;15207;42.182;24.308;2022-08-01T13:35:11;98625.19;;;31.90;28.74
27840;BME280;15207;42.182;24.308;2022-08-01T13:37:41;98623.81;;;31.98;30.07